createdAt,value
2018-09-24T00:00:35.610Z,78.2
2018-09-24T00:01:45.471Z,78.11
2018-09-24T00:02:55.607Z,78.02
2018-09-24T00:04:05.465Z,78.3
2018-09-24T00:05:15.600Z,77.92
2018-09-24T00:06:25.456Z,79.15
2018-09-24T00:07:34.766Z,79.15
2018-09-24T00:08:44.954Z,79.15
2018-09-24T00:09:55.083Z,78.49
2018-09-24T00:11:04.941Z,78.3
2018-09-24T00:12:14.242Z,78.58
2018-09-24T00:13:24.377Z,78.58
2018-09-24T00:14:34.286Z,79.15
2018-09-24T00:15:44.416Z,79.53
2018-09-24T00:16:54.275Z,79.53
2018-09-24T00:18:04.403Z,79.91
2018-09-24T00:19:14.262Z,80
2018-09-24T00:20:24.115Z,80.57
2018-09-24T00:21:34.241Z,80.25
2018-09-24T00:22:44.368Z,80.25
2018-09-24T00:23:54.491Z,81.1
2018-09-24T00:25:04.076Z,80.72
2018-09-24T00:26:13.754Z,80.63
2018-09-24T00:27:23.883Z,80.06
2018-09-24T00:28:34.017Z,80.53
2018-09-24T00:29:43.874Z,80.82
2018-09-24T00:30:54.006Z,80.82
2018-09-24T00:32:03.869Z,81.01
2018-09-24T00:33:14.001Z,80.34
2018-09-24T00:34:24.182Z,80.82
2018-09-24T00:35:34.317Z,80.82
2018-09-24T00:36:44.176Z,80.44
2018-09-24T00:37:54.030Z,80.06
2018-09-24T00:39:03.885Z,79.68
2018-09-24T00:40:14.016Z,80.06
2018-09-24T00:41:23.868Z,80.34
2018-09-24T00:42:33.722Z,79.49
2018-09-24T00:43:43.588Z,78.77
2018-09-24T00:44:53.450Z,79.82
2018-09-24T00:46:03.577Z,79.72
2018-09-24T00:47:13.708Z,80.1
2018-09-24T00:48:23.578Z,78.96
2018-09-24T00:49:33.761Z,79.82
2018-09-24T00:50:43.897Z,79.44
2018-09-24T00:51:54.026Z,79.53
2018-09-24T00:53:03.889Z,79.53
2018-09-24T00:54:14.023Z,79.44
2018-09-24T00:55:23.930Z,79.53
2018-09-24T00:56:33.783Z,79.63
2018-09-24T00:57:43.907Z,78.77
2018-09-24T00:58:54.035Z,78.96
2018-09-24T01:00:04.178Z,78.67
2018-09-24T01:01:14.037Z,78.58
2018-09-24T01:02:24.162Z,78.02
2018-09-24T01:03:34.297Z,78.67
2018-09-24T01:04:44.147Z,78.87
2018-09-24T01:05:54.011Z,78.77
2018-09-24T01:07:03.872Z,78.02
2018-09-24T01:08:14.000Z,77.83
2018-09-24T01:09:24.134Z,77.83
2018-09-24T01:10:34.262Z,77.45
2018-09-24T01:11:44.122Z,77.35
2018-09-24T01:12:53.982Z,77.35
2018-09-24T01:14:04.110Z,77.45
2018-09-24T01:15:14.245Z,77.54
2018-09-24T01:16:24.105Z,77.35
2018-09-24T01:17:33.960Z,77.54
2018-09-24T01:18:44.085Z,77.16
2018-09-24T01:19:53.664Z,77.54
2018-09-24T01:21:03.794Z,77.35
2018-09-24T01:22:13.921Z,77.25
2018-09-24T01:23:23.780Z,76.68
2018-09-24T01:24:33.912Z,76.4
2018-09-24T01:25:44.041Z,76.4
2018-09-24T01:26:53.894Z,75.55
2018-09-24T01:28:04.082Z,75.74
2018-09-24T01:29:13.940Z,75.55
2018-09-24T01:30:24.074Z,75.93
2018-09-24T01:31:33.935Z,76.4
2018-09-24T01:32:43.808Z,76.31
2018-09-24T01:33:53.933Z,76.03
2018-09-24T01:35:04.063Z,75.84
2018-09-24T01:36:14.197Z,76.21
2018-09-24T01:37:24.333Z,76.4
2018-09-24T01:38:33.639Z,77.45
2018-09-24T01:39:43.775Z,78.67
2018-09-24T01:40:53.907Z,79.82
2018-09-24T01:42:03.771Z,79.91
2018-09-24T01:43:13.357Z,80.53
2018-09-24T01:44:23.491Z,81.1
2018-09-24T01:45:33.351Z,81.29
2018-09-24T01:46:43.211Z,82.24
2018-09-24T01:47:55.072Z,81.76
2018-09-24T01:49:04.925Z,82.9
2018-09-24T01:50:14.503Z,83
2018-09-24T01:51:24.405Z,82.9
2018-09-24T01:52:34.535Z,82.71
2018-09-24T01:53:44.664Z,82.86
2018-09-24T01:54:54.520Z,82.81
2018-09-24T01:56:04.102Z,83.28
2018-09-24T01:57:13.683Z,83.81
2018-09-24T01:58:23.807Z,84
2018-09-24T01:59:33.934Z,85.32
2018-09-24T02:00:43.792Z,85.99
2018-09-24T02:01:53.986Z,85.42
2018-09-24T02:03:03.837Z,85.89
2018-09-24T02:04:13.691Z,85.61
2018-09-24T02:05:23.873Z,86.46
2018-09-24T02:06:33.727Z,85.99
2018-09-24T02:07:43.850Z,85.89
2018-09-24T02:08:53.982Z,85.04
2018-09-24T02:10:03.558Z,84.94
2018-09-24T02:11:12.862Z,85.13
2018-09-24T02:12:22.163Z,84.38
2018-09-24T02:13:32.020Z,83.9
2018-09-24T02:14:41.872Z,83.24
2018-09-24T02:15:51.720Z,82.86
2018-09-24T02:17:01.575Z,81.06
2018-09-24T02:18:10.877Z,80.15
2018-09-24T02:19:21.008Z,79.77
2018-09-24T02:20:31.185Z,78.92
2018-09-24T02:21:40.490Z,78.92
2018-09-24T02:22:52.637Z,78.64
2018-09-24T02:24:02.769Z,78.11
2018-09-24T02:25:12.363Z,77.64
2018-09-24T02:26:22.495Z,78.3
2018-09-24T02:27:32.361Z,78.67
2018-09-24T02:28:42.585Z,78.96
2018-09-24T02:29:52.717Z,79.72
2018-09-24T02:31:02.853Z,80.29
2018-09-24T02:32:12.992Z,79.77
2018-09-24T02:33:23.127Z,81.2
2018-09-24T02:34:32.703Z,81.48
2018-09-24T02:35:42.019Z,82.24
2018-09-24T02:36:52.152Z,82.33
2018-09-24T02:38:01.736Z,82.33
2018-09-24T02:39:11.863Z,82.9
2018-09-24T02:40:22.043Z,82.05
2018-09-24T02:41:31.623Z,81.76
2018-09-24T02:42:41.205Z,82.52
2018-09-24T02:43:51.333Z,83.37
2018-09-24T02:45:01.464Z,83.18
2018-09-24T02:46:11.387Z,83.75
2018-09-24T02:47:20.988Z,83.94
2018-09-24T02:48:30.847Z,84.32
2018-09-24T02:49:40.978Z,84.23
2018-09-24T02:50:50.834Z,84.38
2018-09-24T02:52:00.962Z,84.75
2018-09-24T02:53:10.834Z,85.13
2018-09-24T02:54:20.686Z,85.32
2018-09-24T02:55:30.823Z,85.7
2018-09-24T02:56:40.959Z,86.27
2018-09-24T02:57:51.092Z,86.36
2018-09-24T02:59:01.217Z,85.51
2018-09-24T03:00:10.807Z,85.04
2018-09-24T03:01:21.076Z,84.28
2018-09-24T03:02:31.249Z,83.52
2018-09-24T03:03:41.385Z,82.76
2018-09-24T03:04:51.515Z,82.86
2018-09-24T03:06:01.643Z,82.67
2018-09-24T03:07:11.504Z,82.71
2018-09-24T03:08:21.356Z,82.81
2018-09-24T03:09:31.486Z,82.39
2018-09-24T03:10:41.629Z,82.43
2018-09-24T03:11:51.213Z,82.24
2018-09-24T03:13:01.341Z,82.14
2018-09-24T03:14:11.485Z,81.48
2018-09-24T03:15:21.404Z,80.53
2018-09-24T03:16:31.541Z,80.15
2018-09-24T03:17:41.672Z,80.25
2018-09-24T03:18:51.800Z,80.63
2018-09-24T03:20:01.928Z,80.53
2018-09-24T03:21:10.965Z,80.44
2018-09-24T03:22:20.821Z,79.87
2018-09-24T03:23:30.979Z,80.25
2018-09-24T03:24:41.114Z,80.25
2018-09-24T03:25:51.241Z,80.82
2018-09-24T03:27:01.425Z,80.91
2018-09-24T03:28:11.283Z,80.72
2018-09-24T03:29:20.860Z,80.63
2018-09-24T03:30:30.457Z,81.1
2018-09-24T03:31:40.327Z,81.2
2018-09-24T03:32:50.181Z,80.91
2018-09-24T03:34:00.312Z,81.48
2018-09-24T03:35:09.899Z,81.67
2018-09-24T03:36:20.035Z,81.57
2018-09-24T03:37:29.614Z,82.33
2018-09-24T03:38:39.744Z,81.76
2018-09-24T03:39:49.609Z,81.29
2018-09-24T03:40:59.756Z,80.91
2018-09-24T03:42:09.892Z,80.91
2018-09-24T03:43:19.504Z,80.91
2018-09-24T03:44:29.642Z,81.1
2018-09-24T03:45:39.767Z,81.1
2018-09-24T03:46:49.619Z,80.82
2018-09-24T03:47:59.498Z,81.01
2018-09-24T03:49:09.625Z,80.82
2018-09-24T03:50:19.510Z,80.63
2018-09-24T03:51:29.102Z,80.53
2018-09-24T03:52:38.961Z,80.15
2018-09-24T03:53:49.098Z,79.96
2018-09-24T03:54:58.962Z,79.77
2018-09-24T03:56:08.830Z,79.77
2018-09-24T03:57:18.968Z,79.87
2018-09-24T03:58:28.818Z,79.21
2018-09-24T03:59:38.952Z,79.3
2018-09-24T04:00:48.805Z,79.39
2018-09-24T04:01:58.938Z,79.77
2018-09-24T04:03:08.791Z,79.3
2018-09-24T04:04:18.925Z,79.68
2018-09-24T04:05:29.053Z,79.49
2018-09-24T04:06:38.631Z,79.77
2018-09-24T04:07:48.772Z,79.11
2018-09-24T04:08:58.629Z,79.39
2018-09-24T04:10:08.977Z,79.21
2018-09-24T04:11:19.554Z,80.06
2018-09-24T04:12:29.135Z,80.06
2018-09-24T04:13:39.270Z,80.06
2018-09-24T04:14:49.403Z,79.96
2018-09-24T04:15:58.709Z,80.25
2018-09-24T04:17:08.835Z,80.06
2018-09-24T04:18:18.692Z,79.11
2018-09-24T04:19:28.903Z,77.69
2018-09-24T04:20:39.312Z,77.4
2018-09-24T04:21:49.447Z,77.03
2018-09-24T04:22:59.030Z,77.03
2018-09-24T04:24:09.158Z,76.46
2018-09-24T04:25:19.331Z,76.17
2018-09-24T04:26:29.469Z,75.7
2018-09-24T04:27:39.047Z,76.46
2018-09-24T04:28:49.230Z,76.17
2018-09-24T04:29:59.398Z,75.32
2018-09-24T04:31:09.303Z,75.23
2018-09-24T04:32:19.437Z,75.32
2018-09-24T04:33:29.576Z,75.26
2018-09-24T04:34:39.158Z,75.45
2018-09-24T04:35:49.013Z,75.07
2018-09-24T04:36:58.912Z,74.79
2018-09-24T04:38:08.762Z,74.6
2018-09-24T04:39:18.893Z,74.03
2018-09-24T04:40:29.177Z,73.56
2018-09-24T04:41:39.042Z,73.46
2018-09-24T04:42:49.228Z,72.71
2018-09-24T04:43:59.080Z,72.89
2018-09-24T04:45:08.943Z,72.14
2018-09-24T04:46:18.797Z,72.52
2018-09-24T04:47:28.659Z,72.52
2018-09-24T04:48:38.790Z,73.18
2018-09-24T04:49:48.921Z,72.42
2018-09-24T04:50:58.779Z,72.42
2018-09-24T04:52:08.647Z,72.42
2018-09-24T04:53:18.779Z,72.14
2018-09-24T04:54:28.957Z,72.14
2018-09-24T04:55:38.535Z,71.66
2018-09-24T04:56:48.387Z,72.42
2018-09-24T04:57:58.251Z,72.8
2018-09-24T04:59:08.104Z,72.52
2018-09-24T05:00:18.013Z,72.14
2018-09-24T05:01:27.871Z,71.38
2018-09-24T05:02:37.453Z,70.81
2018-09-24T05:03:47.583Z,71.38
2018-09-24T05:04:57.168Z,70.81
2018-09-24T05:06:06.527Z,70.81
2018-09-24T05:07:16.386Z,70.62
2018-09-24T05:08:26.513Z,71
2018-09-24T05:09:36.643Z,70.62
2018-09-24T05:10:46.778Z,70.72
2018-09-24T05:11:56.681Z,70.24
2018-09-24T05:13:06.262Z,70.9
2018-09-24T05:14:16.394Z,70.34
2018-09-24T05:15:26.255Z,69.48
2018-09-24T05:16:36.284Z,69.38
2018-09-24T05:17:46.659Z,69.38
2018-09-24T05:18:56.515Z,69.1
2018-09-24T05:20:06.446Z,69.38
2018-09-24T05:21:16.959Z,69.48
2018-09-24T05:22:27.097Z,69.77
2018-09-24T05:23:37.006Z,69.48
2018-09-24T05:24:47.143Z,69.01
2018-09-24T05:25:56.721Z,69.2
2018-09-24T05:27:06.588Z,69.1
2018-09-24T05:28:16.849Z,69.1
2018-09-24T05:29:27.134Z,69.2
2018-09-24T05:30:37.265Z,69.1
2018-09-24T05:31:47.120Z,69.1
2018-09-24T05:32:56.974Z,69.2
2018-09-24T05:34:06.918Z,69.77
2018-09-24T05:35:16.883Z,69.01
2018-09-24T05:36:26.748Z,68.35
2018-09-24T05:37:36.605Z,68.82
2018-09-24T05:38:46.469Z,69.01
2018-09-24T05:39:56.322Z,69.48
2018-09-24T05:41:06.026Z,69.38
2018-09-24T05:42:16.375Z,69.29
2018-09-24T05:43:26.504Z,68.54
2018-09-24T05:44:36.356Z,67.96
2018-09-24T05:45:46.215Z,67.87
2018-09-24T05:46:56.401Z,67.96
2018-09-24T05:48:06.529Z,67.58
2018-09-24T05:49:16.144Z,68.15
2018-09-24T05:50:26.001Z,67.87
2018-09-24T05:51:36.130Z,67.58
2018-09-24T05:52:46.314Z,67.3
2018-09-24T05:53:56.441Z,67.49
2018-09-24T05:55:06.294Z,67.77
2018-09-24T05:56:16.426Z,68.35
2018-09-24T05:57:26.557Z,67.49
2018-09-24T05:58:36.458Z,67.49
2018-09-24T05:59:46.318Z,67.49
2018-09-24T06:00:56.176Z,67.49
2018-09-24T06:02:06.305Z,67.4
2018-09-24T06:03:16.434Z,67.68
2018-09-24T06:04:26.348Z,67.4
2018-09-24T06:05:36.755Z,67.02
2018-09-24T06:06:46.893Z,67.77
2018-09-24T06:07:57.025Z,67.49
2018-09-24T06:09:06.879Z,66.26
2018-09-24T06:10:16.790Z,66.35
2018-09-24T06:11:26.645Z,66.58
2018-09-24T06:12:36.502Z,66.86
2018-09-24T06:13:46.806Z,66.39
2018-09-24T06:14:57.019Z,66.58
2018-09-24T06:16:07.205Z,65.91
2018-09-24T06:17:17.336Z,65.25
2018-09-24T06:18:27.187Z,65.44
2018-09-24T06:19:37.324Z,65.16
2018-09-24T06:20:47.457Z,65.82
2018-09-24T06:21:57.370Z,64.97
2018-09-24T06:23:06.962Z,65.25
2018-09-24T06:24:17.094Z,65.34
2018-09-24T06:25:26.956Z,65.34
2018-09-24T06:26:36.542Z,66.2
2018-09-24T06:27:46.719Z,66.77
2018-09-24T06:28:56.849Z,67.62
2018-09-24T06:30:06.708Z,66.96
2018-09-24T06:31:16.837Z,67.52
2018-09-24T06:32:26.692Z,68
2018-09-24T06:33:36.881Z,67.9
2018-09-24T06:34:46.739Z,68.29
2018-09-24T06:35:56.597Z,67.05
2018-09-24T06:37:06.738Z,67.52
2018-09-24T06:38:16.645Z,67.05
2018-09-24T06:39:26.885Z,65.91
2018-09-24T06:40:36.737Z,66.39
2018-09-24T06:41:46.945Z,65.82
2018-09-24T06:42:57.063Z,65.91
2018-09-24T06:44:07.128Z,64.68
2018-09-24T06:45:17.035Z,64.59
2018-09-24T06:46:26.896Z,64.49
2018-09-24T06:47:36.759Z,64.78
2018-09-24T06:48:46.888Z,63.67
2018-09-24T06:49:57.063Z,63.86
2018-09-24T06:51:07.243Z,63.76
2018-09-24T06:52:17.372Z,63.1
2018-09-24T06:53:27.500Z,62.62
2018-09-24T06:54:37.353Z,62.34
2018-09-24T06:55:47.489Z,62.53
2018-09-24T06:56:57.397Z,63.1
2018-09-24T06:58:07.251Z,63.29
2018-09-24T06:59:17.104Z,63.2
2018-09-24T07:00:27.297Z,63.67
2018-09-24T07:01:37.425Z,64.71
2018-09-24T07:02:47.332Z,65
2018-09-24T07:03:57.192Z,64.52
2018-09-24T07:05:07.061Z,64.33
2018-09-24T07:06:16.919Z,62.53
2018-09-24T07:07:26.784Z,62.24
2018-09-24T07:08:36.692Z,63.48
2018-09-24T07:09:46.825Z,63.86
2018-09-24T07:10:56.952Z,62.82
2018-09-24T07:12:06.536Z,62.37
2018-09-24T07:13:16.666Z,61.14
2018-09-24T07:14:26.899Z,60.47
2018-09-24T07:15:37.031Z,62.27
2018-09-24T07:16:46.885Z,62.27
2018-09-24T07:17:57.031Z,61.61
2018-09-24T07:19:06.889Z,61.52
2018-09-24T07:20:16.858Z,61.61
2018-09-24T07:21:26.756Z,61.52
2018-09-24T07:22:37.249Z,61.99
2018-09-24T07:23:47.392Z,61.9
2018-09-24T07:24:57.247Z,61.99
2018-09-24T07:26:07.154Z,61.14
2018-09-24T07:27:16.459Z,62.37
2018-09-24T07:28:26.490Z,61.8
2018-09-24T07:29:36.855Z,61.52
2018-09-24T07:30:46.434Z,61.23
2018-09-24T07:31:56.340Z,60.95
2018-09-24T07:33:06.303Z,60.66
2018-09-24T07:34:16.797Z,60.38
2018-09-24T07:35:26.933Z,60.66
2018-09-24T07:36:36.791Z,61.99
2018-09-24T07:37:46.765Z,61.52
2018-09-24T07:38:56.621Z,61.23
2018-09-24T07:40:06.492Z,60.79
2018-09-24T07:41:16.631Z,60.13
2018-09-24T07:42:26.500Z,59.46
2018-09-24T07:43:37.016Z,61.74
2018-09-24T07:44:47.195Z,61.55
2018-09-24T07:45:57.337Z,59.36
2018-09-24T07:47:07.471Z,59.17
2018-09-24T07:48:17.602Z,58.61
2018-09-24T07:49:27.511Z,58.03
2018-09-24T07:50:37.642Z,58.7
2018-09-24T07:51:47.781Z,57.94
2018-09-24T07:52:57.911Z,58.7
2018-09-24T07:54:07.223Z,58.61
2018-09-24T07:55:17.556Z,60.41
2018-09-24T07:56:27.559Z,59.17
2018-09-24T07:57:37.416Z,56.51
2018-09-24T07:58:47.281Z,56.89
2018-09-24T07:59:57.421Z,57.09
2018-09-24T08:01:07.581Z,56.23
2018-09-24T08:02:17.777Z,57.46
2018-09-24T08:03:27.913Z,56.7
2018-09-24T08:04:37.496Z,54.71
2018-09-24T08:05:47.355Z,54.43
2018-09-24T08:06:57.328Z,57.11
2018-09-24T08:08:07.213Z,56.13
2018-09-24T08:09:17.352Z,56.42
2018-09-24T08:10:27.483Z,56.35
2018-09-24T08:11:37.339Z,55.88
2018-09-24T08:12:47.497Z,55.78
2018-09-24T08:13:57.953Z,56.16
2018-09-24T08:15:07.544Z,56.73
2018-09-24T08:16:17.418Z,57.21
2018-09-24T08:17:27.274Z,57.11
2018-09-24T08:18:36.909Z,56.45
2018-09-24T08:19:46.501Z,54.64
2018-09-24T08:20:56.119Z,54.64
2018-09-24T08:22:06.588Z,53.97
2018-09-24T08:23:16.442Z,55.02
2018-09-24T08:24:26.353Z,54.64
2018-09-24T08:25:36.219Z,54.83
2018-09-24T08:26:46.086Z,54.55
2018-09-24T08:27:55.946Z,53.31
2018-09-24T08:29:05.802Z,53.31
2018-09-24T08:30:15.939Z,53.5
2018-09-24T08:31:26.074Z,54.07
2018-09-24T08:32:36.235Z,53.41
2018-09-24T08:33:46.093Z,52.36
2018-09-24T08:34:55.675Z,52.84
2018-09-24T08:36:05.320Z,54.64
2018-09-24T08:37:14.997Z,55.5
2018-09-24T08:38:24.581Z,53.12
2018-09-24T08:39:34.708Z,53.88
2018-09-24T08:40:44.051Z,52.55
2018-09-24T08:41:54.233Z,52.84
2018-09-24T08:43:04.089Z,53.97
2018-09-24T08:44:14.136Z,53.12
2018-09-24T08:45:24.509Z,52.36
2018-09-24T08:46:34.648Z,52.64
2018-09-24T08:47:44.510Z,54.17
2018-09-24T08:48:54.096Z,53.88
2018-09-24T08:50:04.258Z,53.5
2018-09-24T08:51:14.169Z,54.26
2018-09-24T08:52:23.752Z,52.58
2018-09-24T08:53:33.909Z,52.29
2018-09-24T08:54:44.058Z,53.15
2018-09-24T08:55:53.977Z,52.48
2018-09-24T08:57:03.603Z,52.1
2018-09-24T08:58:14.074Z,53.24
2018-09-24T08:59:23.979Z,53.81
2018-09-24T09:00:33.842Z,53.05
2018-09-24T09:01:43.975Z,52.86
2018-09-24T09:02:53.655Z,51.91
2018-09-24T09:04:03.797Z,51.25
2018-09-24T09:05:13.667Z,50.48
2018-09-24T09:06:23.249Z,51.62
2018-09-24T09:07:33.380Z,51.53
2018-09-24T09:08:43.510Z,51.91
2018-09-24T09:09:53.369Z,51.82
2018-09-24T09:11:03.237Z,53.24
2018-09-24T09:12:12.825Z,53.24
2018-09-24T09:13:22.957Z,53.24
2018-09-24T09:14:32.545Z,52.39
2018-09-24T09:15:42.403Z,52.67
2018-09-24T09:16:52.534Z,52.96
2018-09-24T09:18:02.672Z,52.39
2018-09-24T09:19:12.823Z,52.29
2018-09-24T09:20:22.687Z,50.58
2018-09-24T09:21:32.555Z,52.1
2018-09-24T09:22:42.137Z,54.1
2018-09-24T09:23:51.745Z,53.36
2018-09-24T09:25:01.695Z,52.03
2018-09-24T09:26:11.286Z,51.75
2018-09-24T09:27:21.140Z,53.36
2018-09-24T09:28:31.005Z,53.17
2018-09-24T09:29:40.311Z,54.41
2018-09-24T09:30:50.459Z,55.46
2018-09-24T09:32:00.325Z,54.22
2018-09-24T09:33:09.911Z,55.36
2018-09-24T09:34:19.215Z,56.41
2018-09-24T09:35:29.354Z,57.26
2018-09-24T09:36:39.487Z,55.93
2018-09-24T09:37:49.350Z,55.36
2018-09-24T09:38:59.480Z,56.22
2018-09-24T09:40:09.069Z,56.12
2018-09-24T09:41:18.927Z,56.03
2018-09-24T09:42:28.794Z,55.55
2018-09-24T09:43:38.656Z,54.79
2018-09-24T09:44:48.513Z,55.27
2018-09-24T09:45:58.653Z,53.67
2018-09-24T09:47:08.798Z,54.98
2018-09-24T09:48:18.932Z,55.55
2018-09-24T09:49:28.790Z,54.5
2018-09-24T09:50:38.662Z,55.46
2018-09-24T09:51:48.529Z,53.49
2018-09-24T09:52:58.112Z,53.55
2018-09-24T09:54:07.976Z,53.08
2018-09-24T09:55:18.112Z,53.36
2018-09-24T09:56:27.969Z,54.03
2018-09-24T09:57:38.113Z,54.44
2018-09-24T09:58:47.975Z,53.46
2018-09-24T09:59:57.564Z,54.53
2018-09-24T10:01:07.706Z,52.41
2018-09-24T10:02:17.566Z,51.68
2018-09-24T10:03:27.431Z,55.27
2018-09-24T10:04:37.343Z,54.41
2018-09-24T10:05:47.711Z,55.29
2018-09-24T10:06:57.846Z,54.25
2018-09-24T10:08:07.435Z,55.49
2018-09-24T10:09:17.026Z,53.49
2018-09-24T10:10:27.163Z,54.44
2018-09-24T10:11:37.032Z,52.92
2018-09-24T10:12:46.616Z,52.53
2018-09-24T10:13:55.930Z,53.39
2018-09-24T10:15:06.075Z,53.3
2018-09-24T10:16:15.934Z,50.25
2018-09-24T10:17:25.518Z,48.44
2018-09-24T10:18:35.654Z,48.82
2018-09-24T10:19:45.790Z,49.87
2018-09-24T10:20:55.650Z,46.54
2018-09-24T10:22:05.808Z,47.97
2018-09-24T10:23:15.391Z,46.63
2018-09-24T10:24:25.258Z,44.92
2018-09-24T10:25:35.122Z,46.06
2018-09-24T10:26:45.262Z,46.44
2018-09-24T10:27:55.396Z,47.87
2018-09-24T10:29:04.437Z,50.35
2018-09-24T10:30:14.569Z,50.92
2018-09-24T10:31:24.424Z,50.54
2018-09-24T10:32:34.286Z,50.25
2018-09-24T10:33:44.678Z,50.85
2018-09-24T10:34:54.871Z,51.04
2018-09-24T10:36:05.004Z,50.46
2018-09-24T10:37:14.588Z,51.61
2018-09-24T10:38:24.724Z,51.42
2018-09-24T10:39:34.679Z,53.23
2018-09-24T10:40:45.082Z,50.66
2018-09-24T10:41:55.215Z,48.75
2018-09-24T10:43:05.354Z,46.47
2018-09-24T10:44:15.491Z,47.11
2018-09-24T10:45:25.350Z,50.15
2018-09-24T10:46:35.481Z,50.18
2018-09-24T10:47:45.621Z,50.37
2018-09-24T10:48:55.758Z,48.66
2018-09-24T10:50:05.684Z,48.37
2018-09-24T10:51:15.540Z,46.37
2018-09-24T10:52:25.122Z,46.75
2018-09-24T10:53:35.035Z,48.27
2018-09-24T10:54:44.897Z,49.8
2018-09-24T10:55:55.265Z,47.61
2018-09-24T10:57:04.973Z,47.54
2018-09-24T10:58:14.832Z,46.3
2018-09-24T10:59:24.557Z,46.04
2018-09-24T11:00:35.149Z,44.7
2018-09-24T11:01:44.740Z,46.25
2018-09-24T11:02:54.659Z,43.79
2018-09-24T11:04:04.729Z,44.08
2018-09-24T11:05:14.861Z,41.31
2018-09-24T11:06:24.720Z,40.93
2018-09-24T11:07:34.872Z,42.84
2018-09-24T11:08:44.731Z,42.86
2018-09-24T11:09:54.599Z,41.81
2018-09-24T11:11:04.192Z,40.47
2018-09-24T11:12:13.801Z,39.52
2018-09-24T11:13:23.666Z,39.04
2018-09-24T11:14:33.804Z,39.32
2018-09-24T11:15:43.762Z,39.61
2018-09-24T11:16:54.748Z,38.76
2018-09-24T11:18:06.047Z,39.15
2018-09-24T11:19:16.771Z,39.25
2018-09-24T11:20:26.916Z,40.32
2018-09-24T11:21:36.781Z,37.55
2018-09-24T11:22:46.648Z,39.54
2018-09-24T11:23:56.242Z,41.56
2018-09-24T11:25:06.388Z,40.44
2018-09-24T11:27:40.335Z,37.68
2018-09-24T11:28:50.479Z,38.17
2018-09-24T11:30:00.625Z,39.22
2018-09-24T11:31:10.492Z,37.99
2018-09-24T11:32:20.366Z,38.45
2018-09-24T11:33:30.507Z,36.92
2018-09-24T11:34:39.830Z,36.65
2018-09-24T11:35:49.976Z,36.55
2018-09-24T11:36:59.840Z,37.61
2018-09-24T11:38:09.714Z,37.04
2018-09-24T11:39:19.581Z,37.99
2018-09-24T11:40:29.729Z,37.05
2018-09-24T11:41:39.889Z,37.05
2018-09-24T11:42:49.484Z,32.93
2018-09-24T11:43:59.630Z,34.14
2018-09-24T11:45:09.229Z,35
2018-09-24T11:46:19.391Z,36.54
2018-09-24T11:47:29.460Z,37.51
2018-09-24T11:48:39.606Z,35.98
2018-09-24T11:49:49.475Z,36.19
2018-09-24T11:50:59.341Z,34.39
2018-09-24T11:52:08.936Z,36.17
2018-09-24T11:53:19.094Z,36.1
2018-09-24T11:54:28.959Z,35.42
2018-09-24T11:55:38.828Z,33.91
2018-09-24T11:56:48.423Z,34.69
2018-09-24T11:57:58.573Z,32.97
2018-09-24T11:59:08.766Z,33.33
2018-09-24T12:00:18.095Z,34.48
2018-09-24T12:01:28.257Z,36.3
2018-09-24T12:02:38.125Z,34.67
2018-09-24T12:03:48.006Z,34.39
2018-09-24T12:04:57.924Z,34.1
2018-09-24T12:06:07.793Z,33.81
2018-09-24T12:07:17.934Z,35.44
2018-09-24T12:08:28.076Z,33.83
2018-09-24T12:09:37.956Z,32.95
2018-09-24T12:10:47.861Z,33.33
2018-09-24T12:11:57.462Z,33.14
2018-09-24T12:13:07.334Z,34.39
2018-09-24T12:14:17.477Z,34.12
2018-09-24T12:15:27.350Z,33.16
2018-09-24T12:16:36.946Z,33.75
2018-09-24T12:17:47.110Z,33.27
2018-09-24T12:18:57.285Z,32.12
2018-09-24T12:20:06.884Z,32.23
2018-09-24T12:21:16.753Z,30.99
2018-09-24T12:22:26.899Z,32.68
2018-09-24T12:23:36.773Z,30.49
2018-09-24T12:24:46.653Z,30.86
2018-09-24T12:25:56.250Z,32.17
2018-09-24T12:27:06.396Z,34.1
2018-09-24T12:28:16.320Z,33.14
2018-09-24T12:29:26.474Z,32.55
2018-09-24T12:30:36.624Z,33.22
2018-09-24T12:31:46.506Z,35.41
2018-09-24T12:32:56.658Z,34.28
2018-09-24T12:34:06.905Z,33.89
2018-09-24T12:35:17.056Z,34.16
2018-09-24T12:36:27.198Z,33.7
2018-09-24T12:37:37.067Z,33.4
2018-09-24T12:38:47.212Z,33.32
2018-09-24T12:39:57.142Z,32.67
2018-09-24T12:41:06.773Z,32.18
2018-09-24T12:42:16.657Z,33.16
2018-09-24T12:43:26.531Z,32.41
2018-09-24T12:44:36.401Z,31.82
2018-09-24T12:45:46.591Z,31.43
2018-09-24T12:46:56.464Z,32.2
2018-09-24T12:48:06.198Z,32.01
2018-09-24T12:49:15.869Z,31.42
2018-09-24T12:50:26.024Z,32.65
2018-09-24T12:51:36.219Z,31.8
2018-09-24T12:52:46.360Z,31.43
2018-09-24T12:53:56.228Z,31.16
2018-09-24T12:55:06.106Z,30.79
2018-09-24T12:56:15.981Z,32.03
2018-09-24T12:57:26.180Z,32.38
2018-09-24T12:58:36.325Z,33.04
2018-09-24T12:59:45.926Z,34.91
2018-09-24T13:00:56.072Z,36.9
2018-09-24T13:02:05.946Z,36.43
2018-09-24T13:03:15.811Z,36.21
2018-09-24T13:04:25.956Z,36.96
2018-09-24T13:05:35.823Z,37.9
2018-09-24T13:06:45.976Z,38.37
2018-09-24T13:07:55.841Z,38.47
2018-09-24T13:09:06.032Z,39.22
2018-09-24T13:10:15.623Z,38.73
2018-09-24T13:11:25.500Z,38.62
2018-09-24T13:12:35.364Z,40.15
2018-09-24T13:13:44.955Z,41.58
2018-09-24T13:14:55.151Z,41.27
2018-09-24T13:16:04.471Z,40.8
2018-09-24T13:17:14.335Z,40.12
2018-09-24T13:18:24.199Z,40.22
2018-09-24T13:19:33.791Z,41.75
2018-09-24T13:20:43.979Z,42.77
2018-09-24T13:21:53.569Z,42.96
2018-09-24T13:23:03.452Z,43.54
2018-09-24T13:24:13.320Z,44.39
2018-09-24T13:25:23.458Z,42.96
2018-09-24T13:26:33.645Z,42.58
2018-09-24T13:27:43.237Z,42.4
2018-09-24T13:28:53.100Z,42.77
2018-09-24T13:30:02.964Z,42.4
2018-09-24T13:31:12.831Z,44.01
2018-09-24T13:32:22.748Z,44.96
2018-09-24T13:33:32.340Z,44.78
2018-09-24T13:34:41.656Z,44.01
2018-09-24T13:35:51.786Z,43.54
2018-09-24T13:37:01.926Z,44.2
2018-09-24T13:38:12.112Z,44.01
2018-09-24T13:39:21.972Z,43.91
2018-09-24T13:40:32.106Z,43.25
2018-09-24T13:41:42.250Z,43.35
2018-09-24T13:42:51.834Z,44.2
2018-09-24T13:44:01.577Z,42.96
2018-09-24T13:45:11.787Z,44.2
2018-09-24T13:46:22.136Z,44.49
2018-09-24T13:47:32.001Z,44.59
2018-09-24T13:48:42.140Z,44.87
2018-09-24T13:49:52.325Z,46.2
2018-09-24T13:51:02.465Z,43.82
2018-09-24T13:52:11.505Z,43.91
2018-09-24T13:53:21.451Z,43.25
2018-09-24T13:54:31.881Z,42.68
2018-09-24T13:55:41.817Z,43.44
2018-09-24T13:56:51.416Z,43.35
2018-09-24T13:58:01.005Z,43.63
2018-09-24T13:59:10.864Z,43.73
2018-09-24T14:00:20.723Z,43.82
2018-09-24T14:01:30.907Z,45.25
2018-09-24T14:02:41.052Z,45.06
2018-09-24T14:03:51.247Z,45.06
2018-09-24T14:05:00.835Z,44.7
2018-09-24T14:06:10.979Z,44.3
2018-09-24T14:07:21.164Z,44.87
2018-09-24T14:08:30.753Z,44.2
2018-09-24T14:09:40.614Z,44.3
2018-09-24T14:10:50.212Z,43.06
2018-09-24T14:11:59.870Z,43.82
2018-09-24T14:13:09.904Z,44.87
2018-09-24T14:14:19.904Z,44.3
2018-09-24T14:15:30.034Z,45.15
2018-09-24T14:16:39.904Z,44.01
2018-09-24T14:17:49.760Z,44.01
2018-09-24T14:18:59.676Z,44.96
2018-09-24T14:20:09.817Z,44.59
2018-09-24T14:21:19.685Z,45.35
2018-09-24T14:22:29.545Z,44.78
2018-09-24T14:23:39.403Z,44.3
2018-09-24T14:24:49.587Z,43.94
2018-09-24T14:25:59.445Z,43.18
2018-09-24T14:27:09.308Z,43.08
2018-09-24T14:28:19.167Z,41.27
2018-09-24T14:29:28.756Z,40.24
2018-09-24T14:30:38.672Z,41.86
2018-09-24T14:31:48.811Z,40.55
2018-09-24T14:32:58.415Z,40.45
2018-09-24T14:34:08.781Z,39.59
2018-09-24T14:35:19.063Z,39.4
2018-09-24T14:36:29.248Z,38.09
2018-09-24T14:37:39.117Z,36.77
2018-09-24T14:38:48.994Z,37.26
2018-09-24T14:39:59.127Z,36.52
2018-09-24T14:41:08.726Z,36.63
2018-09-24T14:42:18.644Z,36.08
2018-09-24T14:43:28.507Z,34.37
2018-09-24T14:44:38.376Z,33.78
2018-09-24T14:45:48.515Z,33.78
2018-09-24T14:46:58.660Z,35.29
2018-09-24T14:48:08.859Z,34.64
2018-09-24T14:49:18.720Z,33.97
2018-09-24T14:50:28.586Z,33.12
2018-09-24T14:51:38.182Z,32.84
2018-09-24T14:52:48.326Z,33.7
2018-09-24T14:53:57.964Z,34.37
2018-09-24T14:55:07.829Z,31.79
2018-09-24T14:56:17.977Z,33.11
2018-09-24T14:57:27.841Z,32.93
2018-09-24T14:58:37.434Z,31.61
2018-09-24T14:59:47.638Z,32.38
2018-09-24T15:00:57.789Z,32.49
2018-09-24T15:02:07.382Z,31.92
2018-09-24T15:03:17.296Z,31.34
2018-09-24T15:04:27.733Z,31.79
2018-09-24T15:05:37.649Z,32.17
2018-09-24T15:06:47.243Z,32.65